createdAt,value
2018-08-18T00:00:39.530Z,100180.86
2018-08-18T00:03:09.165Z,100193.05
2018-08-18T00:05:38.467Z,100177.70
2018-08-18T00:08:07.943Z,100182.02
2018-08-18T00:10:37.859Z,100180.54
2018-08-18T00:13:07.406Z,100176.34
2018-08-18T00:15:36.742Z,100165.50
2018-08-18T00:18:14.811Z,100186.48
2018-08-18T00:20:44.129Z,100184.64
2018-08-18T00:23:13.566Z,100168.69
2018-08-18T00:25:43.209Z,100193.91
2018-08-18T00:28:19.527Z,100194.06
2018-08-18T00:30:48.886Z,100112.39
2018-08-18T00:33:18.714Z,100199.55
2018-08-18T00:35:48.126Z,100186.41
2018-08-18T00:38:17.396Z,100195.66
2018-08-18T00:40:47.277Z,100186.27
2018-08-18T00:43:17.128Z,100189.05
2018-08-18T00:45:46.675Z,100187.03
2018-08-18T00:48:16.379Z,100195.67
2018-08-18T00:50:46.371Z,100205.87
2018-08-18T00:53:15.707Z,100200.05
2018-08-18T00:55:45.347Z,100200.33
2018-08-18T00:58:21.819Z,100198.12
2018-08-18T01:00:56.136Z,100203.95
2018-08-18T01:03:25.729Z,100196.30
2018-08-18T01:05:55.668Z,100199.76
2018-08-18T01:08:28.345Z,100209.44
2018-08-18T01:10:59.654Z,100217.31
2018-08-18T01:13:29.704Z,100213.13
2018-08-18T01:15:58.971Z,100128.44
2018-08-18T01:18:28.723Z,100228.09
2018-08-18T01:20:58.159Z,100220.58
2018-08-18T01:23:27.522Z,100223.50
2018-08-18T01:25:57.268Z,100222.60
2018-08-18T01:28:26.763Z,100155.86
2018-08-18T01:31:07.767Z,100229.82
2018-08-18T01:33:39.860Z,100225.86
2018-08-18T01:36:11.951Z,100237.84
2018-08-18T01:38:41.253Z,100226.57
2018-08-18T01:41:19.813Z,100233.65
2018-08-18T01:46:28.022Z,100236.34
2018-08-18T01:48:57.609Z,100239.83
2018-08-18T01:51:29.797Z,100242.81
2018-08-18T01:53:59.119Z,100238.11
2018-08-18T01:56:29.794Z,100243.30
2018-08-18T01:59:01.605Z,100223.70
2018-08-18T02:01:30.852Z,100241.63
2018-08-18T02:04:02.327Z,100245.61
2018-08-18T02:06:31.615Z,100252.35
2018-08-18T02:09:00.986Z,100248.22
2018-08-18T02:11:30.543Z,100238.31
2018-08-18T02:13:59.791Z,100251.29
2018-08-18T02:16:30.993Z,100255.38
2018-08-18T02:19:01.007Z,100262.41
2018-08-18T02:21:33.152Z,100251.51
2018-08-18T02:24:06.898Z,100254.77
2018-08-18T02:26:37.025Z,100251.13
2018-08-18T02:29:06.359Z,100257.89
2018-08-18T02:31:35.794Z,100250.37
2018-08-18T02:34:09.496Z,100257.48
2018-08-18T02:36:40.018Z,100251.73
2018-08-18T02:39:09.331Z,100256.51
2018-08-18T02:41:46.435Z,100252.23
2018-08-18T02:44:15.739Z,100248.67
2018-08-18T02:46:45.032Z,100244.02
2018-08-18T02:49:14.674Z,100250.64
2018-08-18T02:51:43.987Z,100243.49
2018-08-18T02:54:13.421Z,100242.51
2018-08-18T02:56:43.709Z,100231.16
2018-08-18T02:59:13.281Z,100239.09
2018-08-18T03:01:43.951Z,100241.67
2018-08-18T03:04:14.663Z,100242.88
2018-08-18T03:06:44.909Z,100254.27
2018-08-18T03:09:14.623Z,100253.11
2018-08-18T03:11:45.036Z,100242.39
2018-08-18T03:14:14.331Z,100142.00
2018-08-18T03:16:44.796Z,100250.27
2018-08-18T03:19:15.860Z,100252.09
2018-08-18T03:21:46.139Z,100255.34
2018-08-18T03:26:52.542Z,100255.60
2018-08-18T03:29:24.001Z,100262.53
2018-08-18T03:31:53.611Z,100260.33
2018-08-18T03:34:25.103Z,100254.08
2018-08-18T03:36:56.509Z,100256.51
2018-08-18T03:39:40.084Z,100256.31
2018-08-18T03:42:09.397Z,100252.65
2018-08-18T03:44:44.410Z,100252.50
2018-08-18T03:47:14.719Z,100259.98
2018-08-18T03:49:45.332Z,100262.77
2018-08-18T03:52:17.829Z,100267.13
2018-08-18T03:54:48.044Z,100268.83
2018-08-18T03:57:19.007Z,100272.53
2018-08-18T03:59:52.431Z,100272.67
2018-08-18T04:02:23.075Z,100270.16
2018-08-18T04:04:57.792Z,100273.80
2018-08-18T04:07:28.275Z,100274.09
2018-08-18T04:10:04.663Z,100268.80
2018-08-18T04:12:35.629Z,100275.61
2018-08-18T04:15:07.624Z,100277.95
2018-08-18T04:17:42.631Z,100283.45
2018-08-18T04:20:15.000Z,100288.48
2018-08-18T04:22:44.688Z,100287.13
2018-08-18T04:25:17.259Z,100286.70
2018-08-18T04:27:49.992Z,100286.25
2018-08-18T04:30:26.504Z,100282.61
2018-08-18T04:33:05.449Z,100291.47
2018-08-18T04:35:36.292Z,100294.85
2018-08-18T04:38:07.505Z,100295.38
2018-08-18T04:40:41.070Z,100303.33
2018-08-18T04:43:14.061Z,100303.28
2018-08-18T04:45:46.059Z,100305.95
2018-08-18T04:48:37.463Z,100314.30
2018-08-18T04:51:09.929Z,100314.13
2018-08-18T04:53:41.577Z,100318.28
2018-08-18T04:56:13.688Z,100316.88
2018-08-18T04:58:45.538Z,100318.47
2018-08-18T05:01:17.138Z,100318.53
2018-08-18T05:04:03.406Z,100322.70
2018-08-18T05:06:36.922Z,100322.11
2018-08-18T05:09:12.645Z,100316.08
2018-08-18T05:11:44.167Z,100320.94
2018-08-18T05:14:15.564Z,100313.38
2018-08-18T05:16:48.392Z,100325.69
2018-08-18T05:19:22.050Z,100330.16
2018-08-18T05:21:52.935Z,100337.10
2018-08-18T05:24:28.266Z,100313.77
2018-08-18T05:27:01.664Z,100326.75
2018-08-18T05:29:36.472Z,100329.09
2018-08-18T05:32:10.625Z,100327.03
2018-08-18T05:34:41.773Z,100327.19
2018-08-18T05:37:12.188Z,100336.70
2018-08-18T05:39:45.180Z,100330.75
2018-08-18T05:42:18.712Z,100328.69
2018-08-18T05:44:49.243Z,100346.45
2018-08-18T05:47:23.180Z,100347.70
2018-08-18T05:49:58.950Z,100345.59
2018-08-18T05:52:34.172Z,100346.66
2018-08-18T05:55:10.157Z,100349.08
2018-08-18T05:57:40.993Z,100352.54
2018-08-18T06:00:24.113Z,100349.64
2018-08-18T06:03:01.863Z,100352.80
2018-08-18T06:05:34.879Z,100351.70
2018-08-18T06:08:09.123Z,100351.39
2018-08-18T06:10:42.351Z,100360.94
2018-08-18T06:13:22.057Z,100357.28
2018-08-18T06:16:10.493Z,100363.23
2018-08-18T06:18:45.197Z,100366.48
2018-08-18T06:21:17.802Z,100363.00
2018-08-18T06:23:50.558Z,100356.86
2018-08-18T06:26:24.154Z,100365.17
2018-08-18T06:28:58.606Z,100364.78
2018-08-18T06:31:34.096Z,100362.27
2018-08-18T06:34:07.804Z,100370.28
2018-08-18T06:36:41.748Z,100312.81
2018-08-18T06:39:16.038Z,100373.39
2018-08-18T06:41:49.195Z,100369.37
2018-08-18T06:44:26.342Z,100373.73
2018-08-18T06:47:01.082Z,100380.09
2018-08-18T06:49:35.684Z,100380.63
2018-08-18T06:52:11.052Z,100382.25
2018-08-18T06:54:45.257Z,100386.51
2018-08-18T06:57:23.262Z,100386.21
2018-08-18T06:59:59.449Z,100384.15
2018-08-18T07:02:34.931Z,100378.09
2018-08-18T07:05:10.505Z,100391.53
2018-08-18T07:07:43.549Z,100393.75
2018-08-18T07:10:28.544Z,100318.20
2018-08-18T07:13:05.629Z,100386.95
2018-08-18T07:15:42.258Z,100390.52
2018-08-18T07:18:17.135Z,100387.24
2018-08-18T07:20:50.543Z,100395.47
2018-08-18T07:23:26.014Z,100363.59
2018-08-18T07:26:04.144Z,100401.73
2018-08-18T07:28:42.675Z,100401.97
2018-08-18T07:31:16.037Z,100405.36
2018-08-18T07:33:49.905Z,100396.39
2018-08-18T07:36:23.827Z,100400.77
2018-08-18T07:38:56.900Z,100398.31
2018-08-18T07:41:29.716Z,100400.53
2018-08-18T07:44:06.152Z,100397.77
2018-08-18T07:46:39.708Z,100389.23
2018-08-18T07:49:14.012Z,100388.33
2018-08-18T07:51:48.053Z,100412.12
2018-08-18T07:54:23.529Z,100409.61
2018-08-18T07:56:57.777Z,100411.80
2018-08-18T07:59:30.725Z,100411.98
2018-08-18T08:02:06.245Z,100415.62
2018-08-18T08:04:43.678Z,100410.36
2018-08-18T08:07:19.983Z,100416.83
2018-08-18T08:09:53.754Z,100410.87
2018-08-18T08:12:28.876Z,100416.69
2018-08-18T08:15:03.992Z,100419.64
2018-08-18T08:17:38.824Z,100419.42
2018-08-18T08:20:18.092Z,100416.52
2018-08-18T08:23:08.467Z,100422.30
2018-08-18T08:25:43.189Z,100425.09
2018-08-18T08:28:19.230Z,100421.14
2018-08-18T08:30:53.851Z,100414.99
2018-08-18T08:33:36.639Z,100419.09
2018-08-18T08:36:13.639Z,100422.30
2018-08-18T08:38:54.542Z,100424.22
2018-08-18T08:41:30.361Z,100424.59
2018-08-18T08:44:04.859Z,100427.06
2018-08-18T08:46:37.969Z,100401.75
2018-08-18T08:49:12.593Z,100415.45
2018-08-18T08:51:45.588Z,100423.47
2018-08-18T08:54:18.596Z,100423.82
2018-08-18T08:56:53.608Z,100418.45
2018-08-18T08:59:25.804Z,100411.67
2018-08-18T09:01:59.625Z,100418.95
2018-08-18T09:04:34.394Z,100425.62
2018-08-18T09:07:11.015Z,100419.06
2018-08-18T09:09:47.573Z,100409.59
2018-08-18T09:12:23.245Z,100414.52
2018-08-18T09:14:56.405Z,100414.94
2018-08-18T09:17:32.920Z,100410.23
2018-08-18T09:20:07.653Z,100413.28
2018-08-18T09:22:56.572Z,100413.01
2018-08-18T09:25:30.775Z,100417.98
2018-08-18T09:28:07.662Z,100410.25
2018-08-18T09:30:42.507Z,100407.28
2018-08-18T09:33:17.310Z,100411.11
2018-08-18T09:36:01.402Z,100407.45
2018-08-18T09:38:36.857Z,100400.88
2018-08-18T09:41:08.362Z,100408.89
2018-08-18T09:43:42.959Z,100391.09
2018-08-18T09:46:16.946Z,100399.20
2018-08-18T09:48:51.333Z,100398.84
2018-08-18T09:51:25.136Z,100404.27
2018-08-18T09:54:00.313Z,100402.58
2018-08-18T09:56:33.429Z,100386.94
2018-08-18T09:59:06.716Z,100394.19
2018-08-18T10:01:41.258Z,100398.98
2018-08-18T10:04:16.892Z,100388.20
2018-08-18T10:06:49.393Z,100399.20
2018-08-18T10:09:25.659Z,100387.27
2018-08-18T10:12:00.651Z,100391.03
2018-08-18T10:14:32.622Z,100368.38
2018-08-18T10:17:04.108Z,100386.03
2018-08-18T10:19:36.036Z,100396.23
2018-08-18T10:22:10.339Z,100387.42
2018-08-18T10:24:42.893Z,100374.16
2018-08-18T10:27:18.743Z,100385.38
2018-08-18T10:29:51.271Z,100389.81
2018-08-18T10:32:24.521Z,100382.03
2018-08-18T10:34:57.284Z,100384.27
2018-08-18T10:37:31.625Z,100382.25
2018-08-18T10:40:12.228Z,100388.47
2018-08-18T10:42:47.980Z,100380.78
2018-08-18T10:45:25.350Z,100381.16
2018-08-18T10:48:00.318Z,100381.12
2018-08-18T10:50:43.576Z,100379.51
2018-08-18T10:53:15.908Z,100375.83
2018-08-18T10:55:47.146Z,100371.27
2018-08-18T10:58:28.489Z,100373.14
2018-08-18T11:01:01.494Z,100376.66
2018-08-18T11:03:34.548Z,100371.59
2018-08-18T11:06:10.429Z,100368.38
2018-08-18T11:08:42.760Z,100376.02
2018-08-18T11:11:19.230Z,100376.33
2018-08-18T11:13:53.479Z,100368.72
2018-08-18T11:16:25.170Z,100374.59
2018-08-18T11:18:57.927Z,100377.83
2018-08-18T11:21:34.158Z,100371.00
2018-08-18T11:24:07.639Z,100361.44
2018-08-18T11:26:43.979Z,100369.15
2018-08-18T11:29:20.184Z,100369.44
2018-08-18T11:31:52.618Z,100362.04
2018-08-18T11:34:26.900Z,100366.44
2018-08-18T11:37:07.395Z,100365.87
2018-08-18T11:39:40.758Z,100364.88
2018-08-18T11:42:13.322Z,100354.23
2018-08-18T11:44:45.789Z,100350.72
2018-08-18T11:47:18.118Z,100350.34
2018-08-18T11:49:51.448Z,100349.34
2018-08-18T11:52:32.706Z,100347.81
2018-08-18T11:55:04.309Z,100351.05
2018-08-18T11:57:42.472Z,100334.27
2018-08-18T12:00:19.256Z,100343.14
2018-08-18T12:02:54.863Z,100335.87
2018-08-18T12:05:26.767Z,100341.46
2018-08-18T12:08:03.972Z,100321.86
2018-08-18T12:10:37.291Z,100330.33
2018-08-18T12:13:09.658Z,100341.17
2018-08-18T12:15:55.492Z,100333.67
2018-08-18T12:18:30.747Z,100336.82
2018-08-18T12:21:05.354Z,100329.39
2018-08-18T12:23:39.708Z,100334.05
2018-08-18T12:26:23.127Z,100322.17
2018-08-18T12:28:59.581Z,100331.19
2018-08-18T12:31:33.581Z,100332.34
2018-08-18T12:34:06.649Z,100325.34
2018-08-18T12:36:41.100Z,100325.61
2018-08-18T12:39:14.821Z,100326.16
2018-08-18T12:41:47.222Z,100316.62
2018-08-18T12:44:23.911Z,100310.12
2018-08-18T12:46:58.965Z,100316.35
2018-08-18T12:49:35.023Z,100311.09
2018-08-18T12:52:10.251Z,100312.40
2018-08-18T12:54:45.611Z,100315.11
2018-08-18T12:57:32.030Z,100301.84
2018-08-18T13:00:08.759Z,100299.14
2018-08-18T13:02:50.121Z,100300.91
2018-08-18T13:05:29.007Z,100303.01
2018-08-18T13:08:09.719Z,100291.69
2018-08-18T13:10:44.337Z,100295.07
2018-08-18T13:13:18.080Z,100286.64
2018-08-18T13:15:52.533Z,100270.84
2018-08-18T13:18:27.442Z,100276.14
2018-08-18T13:21:05.496Z,100277.80
2018-08-18T13:23:41.768Z,100274.27
2018-08-18T13:26:17.148Z,100273.72
2018-08-18T13:28:54.151Z,100271.66
2018-08-18T13:31:34.799Z,100272.93
2018-08-18T13:34:08.837Z,100273.98
2018-08-18T13:36:48.469Z,100271.61
2018-08-18T13:39:21.603Z,100271.48
2018-08-18T13:41:55.609Z,100254.44
2018-08-18T13:44:37.842Z,100262.78
2018-08-18T13:47:13.572Z,100260.19
2018-08-18T13:49:46.920Z,100260.67
2018-08-18T13:52:21.128Z,100264.87
2018-08-18T13:54:58.825Z,100265.28
2018-08-18T13:57:34.623Z,100260.38
2018-08-18T14:00:15.973Z,100251.44
2018-08-18T14:02:48.220Z,100256.00
2018-08-18T14:05:26.833Z,100248.69
2018-08-18T14:08:02.798Z,100248.56
2018-08-18T14:10:35.988Z,100248.30
2018-08-18T14:13:10.016Z,100243.48
2018-08-18T14:15:48.793Z,100241.52
2018-08-18T14:18:23.304Z,100226.54
2018-08-18T14:21:04.700Z,100241.34
2018-08-18T14:23:36.886Z,100233.30
2018-08-18T14:26:09.900Z,100241.47
2018-08-18T14:28:45.731Z,100234.40
2018-08-18T14:31:24.248Z,100238.32
2018-08-18T14:33:58.956Z,100233.61
2018-08-18T14:36:33.338Z,100238.58
2018-08-18T14:39:06.621Z,100227.20
2018-08-18T14:41:43.008Z,100230.02
2018-08-18T14:44:16.435Z,100234.09
2018-08-18T14:46:49.949Z,100234.94
2018-08-18T14:49:23.297Z,100231.55
2018-08-18T14:52:07.443Z,100234.46
2018-08-18T14:54:45.152Z,100234.30
2018-08-18T14:57:18.507Z,100230.87
2018-08-18T14:59:50.096Z,100228.24
2018-08-18T15:02:24.407Z,100228.80
2018-08-18T15:04:58.968Z,100220.16
2018-08-18T15:07:41.164Z,100219.81
2018-08-18T15:10:25.120Z,100215.44
2018-08-18T15:12:58.385Z,100219.88
2018-08-18T15:15:31.115Z,100218.03
2018-08-18T15:18:08.069Z,100208.27
2018-08-18T15:20:41.217Z,100209.84
2018-08-18T15:23:16.270Z,100163.11
2018-08-18T15:25:48.158Z,100208.30
2018-08-18T15:28:22.261Z,100213.67
2018-08-18T15:30:57.530Z,100211.80
2018-08-18T15:33:31.497Z,100208.44
2018-08-18T15:36:05.467Z,100211.83
2018-08-18T15:38:46.591Z,100208.11
2018-08-18T15:41:22.497Z,100205.76
2018-08-18T15:43:54.929Z,100208.22
2018-08-18T15:46:30.673Z,100206.91
2018-08-18T15:49:07.433Z,100209.31
2018-08-18T15:51:40.374Z,100205.00
2018-08-18T15:54:12.287Z,100207.23
2018-08-18T15:56:46.268Z,100203.63
2018-08-18T15:59:18.089Z,100187.51
2018-08-18T16:01:51.748Z,100195.12
2018-08-18T16:04:23.541Z,100189.66
2018-08-18T16:06:56.943Z,100184.72
2018-08-18T16:09:30.482Z,100187.64
2018-08-18T16:12:04.748Z,100180.98
2018-08-18T16:14:39.448Z,100184.02
2018-08-18T16:17:13.139Z,100179.35
2018-08-18T16:19:46.631Z,100186.37
2018-08-18T16:22:23.168Z,100187.95
2018-08-18T16:24:58.318Z,100187.28
2018-08-18T16:27:34.888Z,100181.20
2018-08-18T16:30:08.015Z,100185.87
2018-08-18T16:32:41.928Z,100185.75
2018-08-18T16:35:16.698Z,100190.02
2018-08-18T16:37:48.470Z,100186.41
2018-08-18T16:40:21.737Z,100187.47
2018-08-18T16:42:56.428Z,100182.39
2018-08-18T16:45:29.534Z,100185.25
2018-08-18T16:48:05.485Z,100193.22
2018-08-18T16:50:38.719Z,100192.17
2018-08-18T16:53:12.560Z,100191.75
2018-08-18T16:55:47.452Z,100186.53
2018-08-18T16:58:21.721Z,100184.25
2018-08-18T17:01:00.387Z,100188.38
2018-08-18T17:03:33.279Z,100186.84
2018-08-18T17:06:08.198Z,100182.32
2018-08-18T17:08:39.833Z,100193.60
2018-08-18T17:11:11.781Z,100193.34
2018-08-18T17:13:43.209Z,100194.64
2018-08-18T17:16:18.242Z,100195.95
2018-08-18T17:18:52.260Z,100190.08
2018-08-18T17:21:23.832Z,100180.31
2018-08-18T17:23:53.991Z,100198.24
2018-08-18T17:26:25.239Z,100195.86
2018-08-18T17:28:56.147Z,100200.54
2018-08-18T17:31:26.917Z,100205.48
2018-08-18T17:34:01.863Z,100208.88
2018-08-18T17:36:34.973Z,100206.05
2018-08-18T17:39:07.613Z,100206.02
2018-08-18T17:41:38.873Z,100215.68
2018-08-18T17:44:12.170Z,100217.03
2018-08-18T17:46:50.468Z,100216.77
2018-08-18T17:49:25.778Z,100192.38
2018-08-18T17:52:06.352Z,100215.83
2018-08-18T17:54:38.179Z,100222.86
2018-08-18T17:57:10.316Z,100213.85
2018-08-18T17:59:42.813Z,100215.78
2018-08-18T18:02:16.650Z,100211.55
2018-08-18T18:04:54.614Z,100227.59
2018-08-18T18:07:27.336Z,100226.85
2018-08-18T18:09:58.550Z,100232.84
2018-08-18T18:12:33.824Z,100227.78
2018-08-18T18:15:42.314Z,100227.69
2018-08-18T18:18:16.325Z,100237.52
2018-08-18T18:20:54.278Z,100234.77
2018-08-18T18:23:27.186Z,100240.35
2018-08-18T18:25:59.928Z,100237.89
2018-08-18T18:28:32.193Z,100240.13
2018-08-18T18:31:04.157Z,100245.77
2018-08-18T18:33:35.224Z,100261.29
2018-08-18T18:36:07.922Z,100249.66
2018-08-18T18:38:53.786Z,100248.08
2018-08-18T18:41:29.986Z,100186.03
2018-08-18T18:44:06.359Z,100255.05
2018-08-18T18:46:44.664Z,100259.59
2018-08-18T18:49:28.426Z,100261.89
2018-08-18T18:52:03.149Z,100265.55
2018-08-18T18:54:34.872Z,100256.86
2018-08-18T18:57:10.053Z,100269.33
2018-08-18T18:59:47.235Z,100268.27
2018-08-18T19:02:20.063Z,100273.53
2018-08-18T19:04:52.768Z,100276.59
2018-08-18T19:07:24.906Z,100277.17
2018-08-18T19:10:05.075Z,100280.22
2018-08-18T19:12:42.002Z,100279.40
2018-08-18T19:15:24.442Z,100285.45
2018-08-18T19:18:03.554Z,100280.00
2018-08-18T19:20:36.632Z,100292.34
2018-08-18T19:23:12.965Z,100287.96
2018-08-18T19:25:44.830Z,100291.23
2018-08-18T19:28:20.410Z,100295.62
2018-08-18T19:30:57.406Z,100285.45
2018-08-18T19:33:30.227Z,100292.58
2018-08-18T19:36:04.765Z,100298.32
2018-08-18T19:38:35.887Z,100291.17
2018-08-18T19:41:08.603Z,100296.66
2018-08-18T19:43:41.142Z,100292.23
2018-08-18T19:46:11.718Z,100291.39
2018-08-18T19:48:43.397Z,100300.98
2018-08-18T19:51:17.255Z,100298.78
2018-08-18T19:53:48.580Z,100304.80
2018-08-18T19:56:19.361Z,100303.67
2018-08-18T19:58:51.165Z,100307.23
2018-08-18T20:01:25.653Z,100309.44
2018-08-18T20:04:01.309Z,100307.49
2018-08-18T20:06:36.861Z,100302.53
2018-08-18T20:09:10.274Z,100304.44
2018-08-18T20:11:40.500Z,100303.61
2018-08-18T20:14:16.298Z,100308.23
2018-08-18T20:16:48.537Z,100314.84
2018-08-18T20:19:24.196Z,100315.58
2018-08-18T20:21:56.722Z,100319.38
2018-08-18T20:24:32.615Z,100318.55
2018-08-18T20:27:10.707Z,100315.80
2018-08-18T20:29:43.426Z,100318.98
2018-08-18T20:32:16.752Z,100325.61
2018-08-18T20:34:51.362Z,100323.42
2018-08-18T20:37:26.072Z,100323.42
2018-08-18T20:40:00.329Z,100326.16
2018-08-18T20:42:37.348Z,100322.05
2018-08-18T20:45:13.341Z,100330.24
2018-08-18T20:47:47.329Z,100332.67
2018-08-18T20:53:03.361Z,100328.53
2018-08-18T20:55:41.640Z,100330.45
2018-08-18T20:58:12.900Z,100331.83
2018-08-18T21:00:43.571Z,100330.97
2018-08-18T21:03:12.867Z,100327.41
2018-08-18T21:05:44.069Z,100328.22
2018-08-18T21:08:20.036Z,100337.55
2018-08-18T21:10:53.891Z,100338.87
2018-08-18T21:13:32.426Z,100339.35
2018-08-18T21:16:07.523Z,100341.04
2018-08-18T21:18:40.529Z,100340.41
2018-08-18T21:21:34.256Z,100347.44
2018-08-18T21:24:09.590Z,100346.87
2018-08-18T21:26:42.470Z,100353.88
2018-08-18T21:29:18.526Z,100352.99
2018-08-18T21:31:54.643Z,100354.90
2018-08-18T21:34:32.792Z,100364.72
2018-08-18T21:37:08.530Z,100360.28
2018-08-18T21:39:41.157Z,100360.02
2018-08-18T21:42:13.674Z,100364.45
2018-08-18T21:44:45.525Z,100362.61
2018-08-18T21:47:41.022Z,100365.35
2018-08-18T21:50:17.924Z,100362.91
2018-08-18T21:52:53.337Z,100359.91
2018-08-18T21:55:26.469Z,100369.88
2018-08-18T21:58:01.145Z,100368.41
2018-08-18T22:00:37.739Z,100366.74
2018-08-18T22:03:09.191Z,100365.29
2018-08-18T22:05:43.044Z,100360.62
2018-08-18T22:08:24.037Z,100364.22
2018-08-18T22:11:03.464Z,100364.99
2018-08-18T22:13:45.483Z,100372.44
2018-08-18T22:16:19.969Z,100382.70
2018-08-18T22:18:59.719Z,100375.84
2018-08-18T22:21:37.363Z,100301.23
2018-08-18T22:24:10.730Z,100375.94
2018-08-18T22:26:46.007Z,100381.97
2018-08-18T22:29:19.929Z,100380.54
2018-08-18T22:31:52.243Z,100381.41
2018-08-18T22:34:23.013Z,100380.61
2018-08-18T22:36:57.760Z,100382.53
2018-08-18T22:39:33.051Z,100366.98
2018-08-18T22:42:03.216Z,100373.13
2018-08-18T22:44:33.660Z,100375.73
2018-08-18T22:47:06.655Z,100377.25
2018-08-18T22:49:44.284Z,100376.99
2018-08-18T22:52:14.523Z,100368.98
2018-08-18T22:54:46.814Z,100370.77
2018-08-18T22:57:17.392Z,100366.37
2018-08-18T22:59:47.541Z,100369.27
2018-08-18T23:02:17.427Z,100371.66
2018-08-18T23:04:47.040Z,100367.79
2018-08-18T23:07:19.357Z,100371.99
2018-08-18T23:09:49.497Z,100373.84
2018-08-18T23:12:20.746Z,100374.88
2018-08-18T23:14:51.685Z,100371.00
2018-08-18T23:17:22.345Z,100370.06
2018-08-18T23:19:52.413Z,100370.66
2018-08-18T23:22:34.760Z,100369.86
2018-08-18T23:25:05.000Z,100372.59
2018-08-18T23:27:34.311Z,100365.81
2018-08-18T23:30:04.348Z,100359.45
2018-08-18T23:32:33.715Z,100365.70
2018-08-18T23:35:04.206Z,100364.03
2018-08-18T23:37:35.512Z,100369.00
2018-08-18T23:40:05.803Z,100359.03
2018-08-18T23:42:37.633Z,100357.34
2018-08-18T23:45:08.723Z,100351.55
2018-08-18T23:47:38.937Z,100354.88
2018-08-18T23:50:10.442Z,100352.94
2018-08-18T23:52:53.667Z,100356.66
2018-08-18T23:55:24.712Z,100343.66
